Airfield :







YOU CAN JOIN US ON...

 
LOGIN :

Register | Disclaimer

   EN    FR    IT 

 









Legend :    VFR   Marginal VFR   IFR   Intensive IFR   Very Intensive IFR
Visi :
Ceiling :
>= 8 km
>= 3000ft
5 to 8 km
1000 to 3000 ft
1500m to 5 km
500 to 1000 ft
800 to 1500m
200 to 500 ft
< 800m
< 200 ft
Symbols :   Thunderstorms  Fog  Heavy snow  Heavy precipitations  Wind > 20 kt






- Airport Elevation : 352 ft


KAUG - Augusta State

CURRENT METAR :
  • 262353Z AUTO 20008G14KT 10SM CLR 19/16 A3015 RMK AO2 SLP212 T01940156 10261 20194 53006

EXPIRED METARs :
  • 262253Z AUTO 18006KT 10SM CLR 22/16 A3015 RMK AO2 SLP209 T02170156
  • 262153Z AUTO 17008KT 10SM CLR 23/16 A3014 RMK AO2 SLP206 T02330156

TAF KAUG
Valid from the 27 at 00:00 until the 28 at 00:00 UTC


262320Z 2700/2724 18006KT P6SM SCT140
FM270300 19005KT 1SM BR BKN003
FM271100 VRB03KT P6SM SCT003
FM271300 VRB04KT P6SM SCT070
KZBW FIR / North America



MET'MAP, your aeronautical weather chart ! - Copyright ORBIFLY December 2007 - Disclaimer

ORBIFLY MET'MAP TEAM :

Programming & Development : Alexandra Zaïnal
Concept & original design : Baudouin d'Aumeries
Assistance for programming : Marc-Olivier Méhu
Technical & hardware support : Manuel Goepfert

Contact : metmap@orbifly.com




SOURCES & CREDITS :

   NOAA